Дата Время Давление Температура Влажность Скор. ветра Напр. ветра Макс. ветер Осадки
26.04.18 11:00 731.9 9.6 97.8 3.1 259 7.5 0.6
26.04.18 10:00 731.9 9.1 96.7 1.6 231 5.8 0
26.04.18 09:00 732.3 9.2 95.6 2.8 226 5.8 0.4
26.04.18 08:00 732.9 8.9 92 1.6 225 5.4 0
26.04.18 07:00 732.9 8.7 89.8 0.2 215 4.7 0
26.04.18 06:00 733.5 8.7 87.5 0.4 211 4.4 0
26.04.18 05:00 734.2 8.5 87.6 0.2 232 3.1 0
26.04.18 04:00 734.8 8.4 83.9 0 0 0 0
26.04.18 03:00 735 8.6 81.8 0 237 3.1 0
26.04.18 02:00 735.8 8.7 81.3 0 251 1.4 0
26.04.18 01:00 736.1 8.7 81 0 0 1.5 0
26.04.18 00:00 736.5 8.6 80 0 0 0 0
25.04.18 23:00 736.7 9.3 74.7 0 0 0 0
25.04.18 22:00 736.8 9.8 70.1 0 0 0 0
25.04.18 21:00 736.8 10.1 71.2 0 0 0 0
25.04.18 20:00 736.8 10.3 71.8 0 0 6.5 0
25.04.18 19:00 736.5 11.6 66.3 2.4 270 6.4 0
25.04.18 18:00 736.7 11.5 68.9 1.2 272 6.6 0
25.04.18 17:00 736.9 11.5 71.7 0.3 255 4.8 0
25.04.18 16:00 737.1 10.5 82.6 0 0 7.1 0.8
25.04.18 15:00 737.5 11.9 67.2 3.7 270 10 0
25.04.18 14:00 737.3 12.7 58.5 2.9 258 9.1 0
25.04.18 13:00 737.6 12.4 56.3 0.2 319 7.4 0
25.04.18 12:00 737.8 11.5 61.3 0.7 220 5.8 0